Boston, MA (02199)

2:06 AM EST on November 26, 2014 (GMT -0500)
Boston - South End | Change Station
CLOSE
Current Station
Personal Weather Station
Location: Boston, MA
Elevation: 86 ft
Nearby Weather Stations
Active Advisory: Winter Weather Advisory

Elev 86 ft 42.34 °N, 71.07 °W | Updated 13 minutes ago

Mostly Cloudy
Mostly Cloudy
48.5 °F
Feels Like 45 °F
N
8.0
Wind Variable Wind from NW
Gusts 12.0 mph

Today
High -- | Low -- °F
--% Chance of Precip.
Yesterday
High -- | Low -- °F
Precip. -- in
6:48 AM 4:14 PM
Waxing Crescent, 17% visible
Pressure 30.16 in
Visibility 10.0 miles
Clouds Scattered Clouds 13000 ft
Overcast 20000 ft
Windchill 45 °F
Dew Point 30 °F
Humidity 50%
Rainfall 0.00 in
Snow Depth Not available.
UV 0 out of 12
Pollen .10 out of 12
Air Quality Not available.
Flu Activity Not available.
METAR KBOS 260654Z 28008KT 10SM SCT130 OVC200 10/M02 A3016 RMK AO2 SLP213 T01001022

More Conditions Fewer Conditions

Pressure 30.16 in
Visibility 10.0 miles
Clouds Scattered Clouds 13000 ft
Overcast 20000 ft
Windchill 45 °F
Dew Point 30 °F
Humidity 50%
Rainfall 0.00 in
Snow Depth Not available.
UV 0 out of 12
Pollen .10 out of 12
Air Quality Not available.
Flu Activity Not available.
METAR KBOS 260654Z 28008KT 10SM SCT130 OVC200 10/M02 A3016 RMK AO2 SLP213 T01001022

More Conditions Fewer Conditions

10-Day Weather Forecast

Almanac

Astronomy

Nov. 26, 2014 Rise Set
Actual Time
Civil Twilight
Nautical Twilight
Astronomical Twilight
Moon
Length of Visible Light
Length of Day
Tomorrow will be .
, % of the Moon is Illuminated

Today's Extremes

State Highs State Lows

Community

WunderPhotos

Upload Photos

1,773,694 photos uploaded!

WunderBlogs® & News

Nearby

Air Quality

  Air Quality AQ Index Pollutant
Not available.

Snow Depth

Station Depth Elevation

Earthquake Activity

City Distance Mag. Time & Date
Minimum magnitude displayed is 2.5.

Coastal Water Temperatures

Place Temperature

Nearby Weather Stations